sensor_id;sensor_type;location;lat;lon;timestamp;temperature;humidity
18753;DHT22;9505;50.882;5.350;2023-03-11T00:00:39;0.40;99.90
18753;DHT22;9505;50.882;5.350;2023-03-11T00:03:07;0.30;99.90
18753;DHT22;9505;50.882;5.350;2023-03-11T00:05:38;0.40;99.90
18753;DHT22;9505;50.882;5.350;2023-03-11T00:08:06;0.30;99.90
18753;DHT22;9505;50.882;5.350;2023-03-11T00:10:37;0.30;99.90
18753;DHT22;9505;50.882;5.350;2023-03-11T00:13:05;0.20;99.90
18753;DHT22;9505;50.882;5.350;2023-03-11T00:15:32;0.20;99.90
18753;DHT22;9505;50.882;5.350;2023-03-11T00:17:58;0.10;99.90
18753;DHT22;9505;50.882;5.350;2023-03-11T00:20:27;0.10;99.90
18753;DHT22;9505;50.882;5.350;2023-03-11T00:22:53;0.10;99.90
18753;DHT22;9505;50.882;5.350;2023-03-11T00:25:20;0.10;99.90
18753;DHT22;9505;50.882;5.350;2023-03-11T00:27:46;0.10;99.90
18753;DHT22;9505;50.882;5.350;2023-03-11T00:30:13;0.10;99.90
18753;DHT22;9505;50.882;5.350;2023-03-11T00:32:38;0.00;99.90
18753;DHT22;9505;50.882;5.350;2023-03-11T00:35:05;0.00;99.90
18753;DHT22;9505;50.882;5.350;2023-03-11T00:37:31;0.00;99.90
18753;DHT22;9505;50.882;5.350;2023-03-11T00:39:56;-0.10;99.90
18753;DHT22;9505;50.882;5.350;2023-03-11T00:42:23;0.00;99.90
18753;DHT22;9505;50.882;5.350;2023-03-11T00:44:48;0.00;99.90
18753;DHT22;9505;50.882;5.350;2023-03-11T00:47:14;0.00;99.90
18753;DHT22;9505;50.882;5.350;2023-03-11T00:49:39;0.10;99.90
18753;DHT22;9505;50.882;5.350;2023-03-11T00:52:05;0.20;99.90
18753;DHT22;9505;50.882;5.350;2023-03-11T00:54:31;0.20;99.90
18753;DHT22;9505;50.882;5.350;2023-03-11T00:56:56;0.30;99.90
18753;DHT22;9505;50.882;5.350;2023-03-11T00:59:23;0.40;99.90
18753;DHT22;9505;50.882;5.350;2023-03-11T01:01:49;0.50;99.90
18753;DHT22;9505;50.882;5.350;2023-03-11T01:04:14;0.50;99.90
18753;DHT22;9505;50.882;5.350;2023-03-11T01:06:40;0.70;99.90
18753;DHT22;9505;50.882;5.350;2023-03-11T01:09:06;0.70;99.90
18753;DHT22;9505;50.882;5.350;2023-03-11T01:11:31;0.80;99.90
18753;DHT22;9505;50.882;5.350;2023-03-11T01:13:57;0.80;99.90
18753;DHT22;9505;50.882;5.350;2023-03-11T01:16:23;0.90;99.90
18753;DHT22;9505;50.882;5.350;2023-03-11T01:18:49;0.90;99.90
18753;DHT22;9505;50.882;5.350;2023-03-11T01:21:14;0.90;99.90
18753;DHT22;9505;50.882;5.350;2023-03-11T01:23:40;1.00;99.90
18753;DHT22;9505;50.882;5.350;2023-03-11T01:26:07;1.00;99.90
18753;DHT22;9505;50.882;5.350;2023-03-11T01:28:33;1.00;99.90
18753;DHT22;9505;50.882;5.350;2023-03-11T01:30:59;1.00;99.90
18753;DHT22;9505;50.882;5.350;2023-03-11T01:33:24;1.10;99.90
18753;DHT22;9505;50.882;5.350;2023-03-11T01:35:50;1.10;99.90
18753;DHT22;9505;50.882;5.350;2023-03-11T01:38:16;1.10;99.90
18753;DHT22;9505;50.882;5.350;2023-03-11T01:40:49;1.10;99.90
18753;DHT22;9505;50.882;5.350;2023-03-11T01:46:13;1.20;99.90
18753;DHT22;9505;50.882;5.350;2023-03-11T01:48:39;1.10;99.90
18753;DHT22;9505;50.882;5.350;2023-03-11T01:51:07;1.10;99.90
18753;DHT22;9505;50.882;5.350;2023-03-11T01:53:34;1.00;99.90
18753;DHT22;9505;50.882;5.350;2023-03-11T01:56:02;0.90;99.90
18753;DHT22;9505;50.882;5.350;2023-03-11T01:58:33;0.80;99.90
18753;DHT22;9505;50.882;5.350;2023-03-11T02:01:00;0.80;99.90
18753;DHT22;9505;50.882;5.350;2023-03-11T02:03:30;0.80;99.90
18753;DHT22;9505;50.882;5.350;2023-03-11T02:05:57;0.70;99.90
18753;DHT22;9505;50.882;5.350;2023-03-11T02:08:24;0.80;99.90
18753;DHT22;9505;50.882;5.350;2023-03-11T02:10:52;0.80;99.90
18753;DHT22;9505;50.882;5.350;2023-03-11T02:13:18;0.80;99.90
18753;DHT22;9505;50.882;5.350;2023-03-11T02:15:44;0.70;99.90
18753;DHT22;9505;50.882;5.350;2023-03-11T02:18:12;0.60;99.90
18753;DHT22;9505;50.882;5.350;2023-03-11T02:23:25;0.60;99.90
18753;DHT22;9505;50.882;5.350;2023-03-11T02:26:06;0.50;99.90
18753;DHT22;9505;50.882;5.350;2023-03-11T02:28:34;0.50;99.90
18753;DHT22;9505;50.882;5.350;2023-03-11T02:31:00;0.50;99.90
18753;DHT22;9505;50.882;5.350;2023-03-11T02:33:30;0.50;99.90
18753;DHT22;9505;50.882;5.350;2023-03-11T02:35:56;0.60;99.90
18753;DHT22;9505;50.882;5.350;2023-03-11T02:38:22;0.60;99.90
18753;DHT22;9505;50.882;5.350;2023-03-11T02:40:52;0.50;99.90
18753;DHT22;9505;50.882;5.350;2023-03-11T02:43:24;0.50;99.90
18753;DHT22;9505;50.882;5.350;2023-03-11T02:45:52;0.40;99.90
18753;DHT22;9505;50.882;5.350;2023-03-11T02:48:20;0.40;99.90
18753;DHT22;9505;50.882;5.350;2023-03-11T02:50:46;0.40;99.90
18753;DHT22;9505;50.882;5.350;2023-03-11T02:53:12;0.50;99.90
18753;DHT22;9505;50.882;5.350;2023-03-11T02:55:38;0.50;99.90
18753;DHT22;9505;50.882;5.350;2023-03-11T02:58:04;0.50;99.90
18753;DHT22;9505;50.882;5.350;2023-03-11T03:00:29;0.50;99.90
18753;DHT22;9505;50.882;5.350;2023-03-11T03:02:55;0.50;99.90
18753;DHT22;9505;50.882;5.350;2023-03-11T03:05:21;0.50;99.90
18753;DHT22;9505;50.882;5.350;2023-03-11T03:07:48;0.60;99.90
18753;DHT22;9505;50.882;5.350;2023-03-11T03:10:15;0.70;99.90
18753;DHT22;9505;50.882;5.350;2023-03-11T03:12:41;0.70;99.90
18753;DHT22;9505;50.882;5.350;2023-03-11T03:15:09;0.70;99.90
18753;DHT22;9505;50.882;5.350;2023-03-11T03:17:35;0.80;99.90
18753;DHT22;9505;50.882;5.350;2023-03-11T03:20:01;0.80;99.90
18753;DHT22;9505;50.882;5.350;2023-03-11T03:22:29;0.80;99.90
18753;DHT22;9505;50.882;5.350;2023-03-11T03:24:54;0.80;99.90
18753;DHT22;9505;50.882;5.350;2023-03-11T03:27:20;0.80;99.90
18753;DHT22;9505;50.882;5.350;2023-03-11T03:29:46;0.70;99.90
18753;DHT22;9505;50.882;5.350;2023-03-11T03:32:11;0.70;99.90
18753;DHT22;9505;50.882;5.350;2023-03-11T03:34:37;0.80;99.90
18753;DHT22;9505;50.882;5.350;2023-03-11T03:37:02;0.70;99.90
18753;DHT22;9505;50.882;5.350;2023-03-11T03:39:28;0.80;99.90
18753;DHT22;9505;50.882;5.350;2023-03-11T03:41:53;0.80;99.90
18753;DHT22;9505;50.882;5.350;2023-03-11T03:44:19;0.80;99.90
18753;DHT22;9505;50.882;5.350;2023-03-11T03:46:45;0.90;99.90
18753;DHT22;9505;50.882;5.350;2023-03-11T03:49:10;0.90;99.90
18753;DHT22;9505;50.882;5.350;2023-03-11T03:51:36;0.90;99.90
18753;DHT22;9505;50.882;5.350;2023-03-11T03:54:02;1.00;99.90
18753;DHT22;9505;50.882;5.350;2023-03-11T03:56:27;1.00;99.90
18753;DHT22;9505;50.882;5.350;2023-03-11T03:58:53;1.00;99.90
18753;DHT22;9505;50.882;5.350;2023-03-11T04:01:19;0.90;99.90
18753;DHT22;9505;50.882;5.350;2023-03-11T04:03:44;0.90;99.90
18753;DHT22;9505;50.882;5.350;2023-03-11T04:08:40;0.80;99.90
18753;DHT22;9505;50.882;5.350;2023-03-11T04:11:06;0.70;99.90
18753;DHT22;9505;50.882;5.350;2023-03-11T04:13:32;0.70;99.90
18753;DHT22;9505;50.882;5.350;2023-03-11T04:15:57;0.60;99.90
18753;DHT22;9505;50.882;5.350;2023-03-11T04:18:23;0.50;99.90
18753;DHT22;9505;50.882;5.350;2023-03-11T04:20:49;0.40;99.90
18753;DHT22;9505;50.882;5.350;2023-03-11T04:23:15;0.40;99.90
18753;DHT22;9505;50.882;5.350;2023-03-11T04:25:40;0.30;99.90
18753;DHT22;9505;50.882;5.350;2023-03-11T04:28:06;0.20;99.90
18753;DHT22;9505;50.882;5.350;2023-03-11T04:30:31;0.20;99.90
18753;DHT22;9505;50.882;5.350;2023-03-11T04:32:57;0.30;99.90
18753;DHT22;9505;50.882;5.350;2023-03-11T04:35:23;0.30;99.90
18753;DHT22;9505;50.882;5.350;2023-03-11T04:37:48;0.30;99.90
18753;DHT22;9505;50.882;5.350;2023-03-11T04:40:14;0.30;99.90
18753;DHT22;9505;50.882;5.350;2023-03-11T04:42:39;0.20;99.90
18753;DHT22;9505;50.882;5.350;2023-03-11T04:45:06;0.20;99.90
18753;DHT22;9505;50.882;5.350;2023-03-11T04:47:32;0.10;99.90
18753;DHT22;9505;50.882;5.350;2023-03-11T04:49:57;0.10;99.90
18753;DHT22;9505;50.882;5.350;2023-03-11T04:52:23;0.00;99.90
18753;DHT22;9505;50.882;5.350;2023-03-11T04:54:49;-0.10;99.90
18753;DHT22;9505;50.882;5.350;2023-03-11T04:57:14;-0.20;99.90
18753;DHT22;9505;50.882;5.350;2023-03-11T04:59:40;-0.30;99.90
18753;DHT22;9505;50.882;5.350;2023-03-11T05:02:05;-0.30;99.90
18753;DHT22;9505;50.882;5.350;2023-03-11T05:04:31;-0.40;99.90
18753;DHT22;9505;50.882;5.350;2023-03-11T05:06:57;-0.40;99.90
18753;DHT22;9505;50.882;5.350;2023-03-11T05:09:22;-0.50;99.90
18753;DHT22;9505;50.882;5.350;2023-03-11T05:11:48;-0.60;99.90
18753;DHT22;9505;50.882;5.350;2023-03-11T05:14:13;-0.60;99.90
18753;DHT22;9505;50.882;5.350;2023-03-11T05:16:39;-0.70;99.90
18753;DHT22;9505;50.882;5.350;2023-03-11T05:19:05;-0.70;99.90
18753;DHT22;9505;50.882;5.350;2023-03-11T05:21:50;-0.70;99.90
18753;DHT22;9505;50.882;5.350;2023-03-11T05:24:16;-0.80;99.90
18753;DHT22;9505;50.882;5.350;2023-03-11T05:26:41;-0.90;99.90
18753;DHT22;9505;50.882;5.350;2023-03-11T05:29:07;-0.90;99.90
18753;DHT22;9505;50.882;5.350;2023-03-11T05:31:32;-1.00;99.90
18753;DHT22;9505;50.882;5.350;2023-03-11T05:33:58;-1.00;99.90
18753;DHT22;9505;50.882;5.350;2023-03-11T05:36:23;-1.10;99.90
18753;DHT22;9505;50.882;5.350;2023-03-11T05:38:49;-1.10;99.90
18753;DHT22;9505;50.882;5.350;2023-03-11T05:41:14;-1.10;99.90
18753;DHT22;9505;50.882;5.350;2023-03-11T05:43:40;-1.20;99.90
18753;DHT22;9505;50.882;5.350;2023-03-11T05:46:05;-1.20;99.90
18753;DHT22;9505;50.882;5.350;2023-03-11T05:48:31;-1.20;99.90
18753;DHT22;9505;50.882;5.350;2023-03-11T05:50:57;-1.20;99.90
18753;DHT22;9505;50.882;5.350;2023-03-11T05:53:23;-1.20;99.90
18753;DHT22;9505;50.882;5.350;2023-03-11T05:55:59;-1.30;99.90
18753;DHT22;9505;50.882;5.350;2023-03-11T05:58:25;-1.30;99.90
18753;DHT22;9505;50.882;5.350;2023-03-11T06:00:51;-1.40;99.90
18753;DHT22;9505;50.882;5.350;2023-03-11T06:03:17;-1.30;99.90
18753;DHT22;9505;50.882;5.350;2023-03-11T06:05:44;-1.30;99.90
18753;DHT22;9505;50.882;5.350;2023-03-11T06:08:10;-1.30;99.90
18753;DHT22;9505;50.882;5.350;2023-03-11T06:10:35;-1.30;99.90
18753;DHT22;9505;50.882;5.350;2023-03-11T06:13:01;-1.30;99.90
18753;DHT22;9505;50.882;5.350;2023-03-11T06:15:26;-1.30;99.90
18753;DHT22;9505;50.882;5.350;2023-03-11T06:17:52;-1.20;99.90
18753;DHT22;9505;50.882;5.350;2023-03-11T06:20:18;-1.10;99.90
18753;DHT22;9505;50.882;5.350;2023-03-11T06:22:43;-1.00;99.90
18753;DHT22;9505;50.882;5.350;2023-03-11T06:25:09;-0.90;99.90
18753;DHT22;9505;50.882;5.350;2023-03-11T06:27:34;-0.80;99.90
18753;DHT22;9505;50.882;5.350;2023-03-11T06:30:00;-0.70;99.90
18753;DHT22;9505;50.882;5.350;2023-03-11T06:32:26;-0.70;99.90
18753;DHT22;9505;50.882;5.350;2023-03-11T06:34:52;-0.70;99.90
18753;DHT22;9505;50.882;5.350;2023-03-11T06:37:18;-0.80;99.90
18753;DHT22;9505;50.882;5.350;2023-03-11T06:39:45;-0.80;99.90
18753;DHT22;9505;50.882;5.350;2023-03-11T06:42:11;-0.80;99.90
18753;DHT22;9505;50.882;5.350;2023-03-11T06:44:37;-0.80;99.90
18753;DHT22;9505;50.882;5.350;2023-03-11T06:47:02;-0.70;99.90
18753;DHT22;9505;50.882;5.350;2023-03-11T06:49:28;-0.70;99.90
18753;DHT22;9505;50.882;5.350;2023-03-11T06:51:53;-0.60;99.90
18753;DHT22;9505;50.882;5.350;2023-03-11T06:54:19;-0.60;99.90
18753;DHT22;9505;50.882;5.350;2023-03-11T06:56:45;-0.50;99.90
18753;DHT22;9505;50.882;5.350;2023-03-11T06:59:10;-0.40;99.90
18753;DHT22;9505;50.882;5.350;2023-03-11T07:01:36;-0.30;99.90
18753;DHT22;9505;50.882;5.350;2023-03-11T07:04:01;-0.20;99.90
18753;DHT22;9505;50.882;5.350;2023-03-11T07:06:28;-0.30;99.90
18753;DHT22;9505;50.882;5.350;2023-03-11T07:08:54;-0.30;99.90
18753;DHT22;9505;50.882;5.350;2023-03-11T07:11:24;-0.40;99.90
18753;DHT22;9505;50.882;5.350;2023-03-11T07:13:52;-0.40;99.90
18753;DHT22;9505;50.882;5.350;2023-03-11T07:16:23;-0.40;99.90
18753;DHT22;9505;50.882;5.350;2023-03-11T07:18:50;-0.30;99.90
18753;DHT22;9505;50.882;5.350;2023-03-11T07:21:19;-0.10;99.90
18753;DHT22;9505;50.882;5.350;2023-03-11T07:23:45;0.10;99.90
18753;DHT22;9505;50.882;5.350;2023-03-11T07:26:13;0.40;99.90
18753;DHT22;9505;50.882;5.350;2023-03-11T07:28:39;0.70;99.90
18753;DHT22;9505;50.882;5.350;2023-03-11T07:31:32;1.10;99.90
18753;DHT22;9505;50.882;5.350;2023-03-11T07:34:00;1.70;99.90
18753;DHT22;9505;50.882;5.350;2023-03-11T07:36:27;2.60;99.90
18753;DHT22;9505;50.882;5.350;2023-03-11T07:39:03;2.90;99.90
18753;DHT22;9505;50.882;5.350;2023-03-11T07:41:31;2.80;99.90
18753;DHT22;9505;50.882;5.350;2023-03-11T07:43:58;3.00;99.90
18753;DHT22;9505;50.882;5.350;2023-03-11T07:46:26;3.40;99.90
18753;DHT22;9505;50.882;5.350;2023-03-11T07:48:52;4.10;99.90
18753;DHT22;9505;50.882;5.350;2023-03-11T07:51:25;4.60;99.90
18753;DHT22;9505;50.882;5.350;2023-03-11T07:53:53;5.10;99.90
18753;DHT22;9505;50.882;5.350;2023-03-11T07:56:20;5.40;99.90
18753;DHT22;9505;50.882;5.350;2023-03-11T07:58:47;5.70;99.90
18753;DHT22;9505;50.882;5.350;2023-03-11T08:01:14;5.60;99.90
18753;DHT22;9505;50.882;5.350;2023-03-11T08:03:42;5.60;99.90
18753;DHT22;9505;50.882;5.350;2023-03-11T08:06:18;6.20;99.90
18753;DHT22;9505;50.882;5.350;2023-03-11T08:08:44;7.30;99.90
18753;DHT22;9505;50.882;5.350;2023-03-11T08:11:11;7.80;99.90
18753;DHT22;9505;50.882;5.350;2023-03-11T08:13:41;8.30;99.90
18753;DHT22;9505;50.882;5.350;2023-03-11T08:16:08;9.10;99.90
18753;DHT22;9505;50.882;5.350;2023-03-11T08:18:34;9.50;99.90
18753;DHT22;9505;50.882;5.350;2023-03-11T08:21:07;10.40;99.90
18753;DHT22;9505;50.882;5.350;2023-03-11T08:23:33;10.90;99.90
18753;DHT22;9505;50.882;5.350;2023-03-11T08:26:03;11.60;99.90
18753;DHT22;9505;50.882;5.350;2023-03-11T08:28:28;12.00;99.90
18753;DHT22;9505;50.882;5.350;2023-03-11T08:30:54;12.50;99.90
18753;DHT22;9505;50.882;5.350;2023-03-11T08:33:19;12.40;99.90
18753;DHT22;9505;50.882;5.350;2023-03-11T08:35:45;13.10;99.90
18753;DHT22;9505;50.882;5.350;2023-03-11T08:38:10;13.40;99.90
18753;DHT22;9505;50.882;5.350;2023-03-11T08:40:36;12.70;99.90
18753;DHT22;9505;50.882;5.350;2023-03-11T08:43:02;12.70;99.90
18753;DHT22;9505;50.882;5.350;2023-03-11T08:45:27;12.60;99.90
18753;DHT22;9505;50.882;5.350;2023-03-11T08:47:53;12.20;99.90
18753;DHT22;9505;50.882;5.350;2023-03-11T08:50:19;11.70;99.90
18753;DHT22;9505;50.882;5.350;2023-03-11T08:52:44;11.30;99.90
18753;DHT22;9505;50.882;5.350;2023-03-11T08:55:13;11.70;99.90
18753;DHT22;9505;50.882;5.350;2023-03-11T08:57:40;12.00;99.90
18753;DHT22;9505;50.882;5.350;2023-03-11T09:00:08;11.50;99.90
18753;DHT22;9505;50.882;5.350;2023-03-11T09:02:34;11.10;99.90
18753;DHT22;9505;50.882;5.350;2023-03-11T09:04:59;10.80;99.90
18753;DHT22;9505;50.882;5.350;2023-03-11T09:07:25;10.40;99.90
18753;DHT22;9505;50.882;5.350;2023-03-11T09:09:51;10.10;99.90
18753;DHT22;9505;50.882;5.350;2023-03-11T09:12:16;9.50;99.90
18753;DHT22;9505;50.882;5.350;2023-03-11T09:14:43;9.40;99.90
18753;DHT22;9505;50.882;5.350;2023-03-11T09:17:09;9.70;99.90
18753;DHT22;9505;50.882;5.350;2023-03-11T09:19:37;9.80;99.90
18753;DHT22;9505;50.882;5.350;2023-03-11T09:22:03;9.50;99.90
18753;DHT22;9505;50.882;5.350;2023-03-11T09:24:32;9.30;99.90
18753;DHT22;9505;50.882;5.350;2023-03-11T09:26:57;9.30;99.90
18753;DHT22;9505;50.882;5.350;2023-03-11T09:29:23;8.90;99.90
18753;DHT22;9505;50.882;5.350;2023-03-11T09:31:49;8.50;99.90
18753;DHT22;9505;50.882;5.350;2023-03-11T09:34:14;8.40;99.90
18753;DHT22;9505;50.882;5.350;2023-03-11T09:36:40;8.40;99.90
18753;DHT22;9505;50.882;5.350;2023-03-11T09:39:06;8.10;99.90
18753;DHT22;9505;50.882;5.350;2023-03-11T09:41:44;7.70;99.90
18753;DHT22;9505;50.882;5.350;2023-03-11T09:52:10;7.90;99.90
18753;DHT22;9505;50.882;5.350;2023-03-11T09:54:39;8.20;99.90
18753;DHT22;9505;50.882;5.350;2023-03-11T09:57:12;8.40;99.90
18753;DHT22;9505;50.882;5.350;2023-03-11T09:59:39;8.70;99.90
18753;DHT22;9505;50.882;5.350;2023-03-11T10:02:13;9.10;99.90
18753;DHT22;9505;50.882;5.350;2023-03-11T10:05:05;9.30;99.90
18753;DHT22;9505;50.882;5.350;2023-03-11T10:07:37;9.20;99.90
18753;DHT22;9505;50.882;5.350;2023-03-11T10:10:04;9.00;99.90
18753;DHT22;9505;50.882;5.350;2023-03-11T10:12:51;8.90;99.90
18753;DHT22;9505;50.882;5.350;2023-03-11T10:21:05;8.80;99.90
18753;DHT22;9505;50.882;5.350;2023-03-11T10:26:22;9.30;99.90
18753;DHT22;9505;50.882;5.350;2023-03-11T10:28:59;9.50;99.90
18753;DHT22;9505;50.882;5.350;2023-03-11T10:31:31;9.40;99.90
18753;DHT22;9505;50.882;5.350;2023-03-11T10:34:03;9.40;99.90
18753;DHT22;9505;50.882;5.350;2023-03-11T10:37:04;9.10;99.90
18753;DHT22;9505;50.882;5.350;2023-03-11T10:39:33;9.20;99.90
18753;DHT22;9505;50.882;5.350;2023-03-11T10:42:04;9.40;99.90
18753;DHT22;9505;50.882;5.350;2023-03-11T10:44:40;9.80;99.70
18753;DHT22;9505;50.882;5.350;2023-03-11T10:47:15;9.40;99.90
18753;DHT22;9505;50.882;5.350;2023-03-11T10:49:41;9.30;99.90
18753;DHT22;9505;50.882;5.350;2023-03-11T10:52:07;8.70;99.30
18753;DHT22;9505;50.882;5.350;2023-03-11T10:54:35;8.40;99.90
18753;DHT22;9505;50.882;5.350;2023-03-11T10:57:05;8.50;99.90
18753;DHT22;9505;50.882;5.350;2023-03-11T10:59:33;8.70;99.90
18753;DHT22;9505;50.882;5.350;2023-03-11T11:02:18;9.00;99.90
18753;DHT22;9505;50.882;5.350;2023-03-11T11:04:45;9.30;99.90
18753;DHT22;9505;50.882;5.350;2023-03-11T11:07:31;9.90;99.90
18753;DHT22;9505;50.882;5.350;2023-03-11T11:15:34;11.60;99.90
18753;DHT22;9505;50.882;5.350;2023-03-11T11:18:05;11.20;99.90
18753;DHT22;9505;50.882;5.350;2023-03-11T11:21:08;9.90;99.90
18753;DHT22;9505;50.882;5.350;2023-03-11T11:23:42;9.40;98.60
18753;DHT22;9505;50.882;5.350;2023-03-11T11:26:21;9.20;99.90
18753;DHT22;9505;50.882;5.350;2023-03-11T11:29:06;10.00;99.60
18753;DHT22;9505;50.882;5.350;2023-03-11T11:31:41;10.40;99.80
18753;DHT22;9505;50.882;5.350;2023-03-11T11:36:51;10.40;99.90
18753;DHT22;9505;50.882;5.350;2023-03-11T11:39:19;10.80;97.70
18753;DHT22;9505;50.882;5.350;2023-03-11T11:41:47;11.10;98.50
18753;DHT22;9505;50.882;5.350;2023-03-11T11:44:16;10.90;94.20
18753;DHT22;9505;50.882;5.350;2023-03-11T11:46:53;10.10;98.50
18753;DHT22;9505;50.882;5.350;2023-03-11T11:49:26;9.70;96.10
18753;DHT22;9505;50.882;5.350;2023-03-11T11:52:14;9.90;96.30
18753;DHT22;9505;50.882;5.350;2023-03-11T11:57:21;10.30;97.50
18753;DHT22;9505;50.882;5.350;2023-03-11T11:59:47;10.10;97.60
18753;DHT22;9505;50.882;5.350;2023-03-11T12:07:32;10.60;99.20
18753;DHT22;9505;50.882;5.350;2023-03-11T12:15:38;11.30;96.80
18753;DHT22;9505;50.882;5.350;2023-03-11T12:18:10;9.80;96.40
18753;DHT22;9505;50.882;5.350;2023-03-11T12:20:44;9.50;98.70
18753;DHT22;9505;50.882;5.350;2023-03-11T12:28:54;10.30;97.50
18753;DHT22;9505;50.882;5.350;2023-03-11T12:31:23;9.40;99.40
18753;DHT22;9505;50.882;5.350;2023-03-11T12:34:01;9.60;98.30
18753;DHT22;9505;50.882;5.350;2023-03-11T12:36:30;9.70;99.50
18753;DHT22;9505;50.882;5.350;2023-03-11T12:38:57;9.40;98.50
18753;DHT22;9505;50.882;5.350;2023-03-11T12:46:18;9.60;97.40
18753;DHT22;9505;50.882;5.350;2023-03-11T12:48:45;10.30;97.10
18753;DHT22;9505;50.882;5.350;2023-03-11T12:53:53;11.10;98.00
18753;DHT22;9505;50.882;5.350;2023-03-11T12:58:51;11.00;96.50
18753;DHT22;9505;50.882;5.350;2023-03-11T13:10:12;11.00;97.40
18753;DHT22;9505;50.882;5.350;2023-03-11T13:18:16;11.10;94.30
18753;DHT22;9505;50.882;5.350;2023-03-11T13:20:44;10.90;96.70
18753;DHT22;9505;50.882;5.350;2023-03-11T13:23:31;10.60;97.90
18753;DHT22;9505;50.882;5.350;2023-03-11T13:26:04;10.30;97.80
18753;DHT22;9505;50.882;5.350;2023-03-11T13:36:57;9.60;97.70
18753;DHT22;9505;50.882;5.350;2023-03-11T13:39:44;9.70;97.30
18753;DHT22;9505;50.882;5.350;2023-03-11T13:44:57;9.20;99.10
18753;DHT22;9505;50.882;5.350;2023-03-11T13:47:24;9.00;99.00
18753;DHT22;9505;50.882;5.350;2023-03-11T13:50:15;8.70;97.80
18753;DHT22;9505;50.882;5.350;2023-03-11T13:52:46;8.50;98.20
18753;DHT22;9505;50.882;5.350;2023-03-11T13:55:31;8.70;97.50
18753;DHT22;9505;50.882;5.350;2023-03-11T13:57:58;8.70;98.40
18753;DHT22;9505;50.882;5.350;2023-03-11T14:00:26;8.70;98.70
18753;DHT22;9505;50.882;5.350;2023-03-11T14:02:53;8.90;99.90
18753;DHT22;9505;50.882;5.350;2023-03-11T14:05:56;9.60;99.90
18753;DHT22;9505;50.882;5.350;2023-03-11T14:11:46;10.60;95.40
18753;DHT22;9505;50.882;5.350;2023-03-11T14:13:48;11.20;93.90
18753;DHT22;9505;50.882;5.350;2023-03-11T14:18:41;11.60;95.60
18753;DHT22;9505;50.882;5.350;2023-03-11T14:21:15;12.00;94.40
18753;DHT22;9505;50.882;5.350;2023-03-11T14:23:43;12.40;93.60
18753;DHT22;9505;50.882;5.350;2023-03-11T14:26:29;12.40;93.40
18753;DHT22;9505;50.882;5.350;2023-03-11T14:29:05;12.90;92.30
18753;DHT22;9505;50.882;5.350;2023-03-11T14:34:13;13.60;93.80
18753;DHT22;9505;50.882;5.350;2023-03-11T14:39:30;12.80;92.60
18753;DHT22;9505;50.882;5.350;2023-03-11T14:42:03;12.50;92.20
18753;DHT22;9505;50.882;5.350;2023-03-11T14:44:33;12.30;92.60
18753;DHT22;9505;50.882;5.350;2023-03-11T14:47:13;12.50;93.50
18753;DHT22;9505;50.882;5.350;2023-03-11T14:49:40;12.70;91.40
18753;DHT22;9505;50.882;5.350;2023-03-11T14:52:38;12.40;90.80
18753;DHT22;9505;50.882;5.350;2023-03-11T14:55:12;12.40;92.20
18753;DHT22;9505;50.882;5.350;2023-03-11T14:57:46;12.80;92.00
18753;DHT22;9505;50.882;5.350;2023-03-11T15:00:20;13.20;92.10
18753;DHT22;9505;50.882;5.350;2023-03-11T15:03:15;13.00;90.90
18753;DHT22;9505;50.882;5.350;2023-03-11T15:05:50;12.60;90.40
18753;DHT22;9505;50.882;5.350;2023-03-11T15:08:21;13.00;91.30
18753;DHT22;9505;50.882;5.350;2023-03-11T15:11:06;12.80;91.60
18753;DHT22;9505;50.882;5.350;2023-03-11T15:13:34;12.10;91.50
18753;DHT22;9505;50.882;5.350;2023-03-11T15:16:01;12.10;93.60
18753;DHT22;9505;50.882;5.350;2023-03-11T15:18:32;11.70;90.80
18753;DHT22;9505;50.882;5.350;2023-03-11T15:23:44;11.50;91.90
18753;DHT22;9505;50.882;5.350;2023-03-11T15:26:23;12.00;91.20
18753;DHT22;9505;50.882;5.350;2023-03-11T15:29:13;12.60;90.70
18753;DHT22;9505;50.882;5.350;2023-03-11T15:31:41;13.00;92.70
18753;DHT22;9505;50.882;5.350;2023-03-11T15:34:29;13.70;90.00
18753;DHT22;9505;50.882;5.350;2023-03-11T15:46:57;14.20;87.50
18753;DHT22;9505;50.882;5.350;2023-03-11T15:49:27;14.10;85.70
18753;DHT22;9505;50.882;5.350;2023-03-11T15:51:57;13.90;85.00
18753;DHT22;9505;50.882;5.350;2023-03-11T15:54:23;12.80;86.20
18753;DHT22;9505;50.882;5.350;2023-03-11T15:56:49;12.50;92.10
18753;DHT22;9505;50.882;5.350;2023-03-11T15:59:15;12.50;92.80
18753;DHT22;9505;50.882;5.350;2023-03-11T16:01:42;12.90;90.30
18753;DHT22;9505;50.882;5.350;2023-03-11T16:04:13;13.20;85.90
18753;DHT22;9505;50.882;5.350;2023-03-11T16:06:39;13.30;90.30
18753;DHT22;9505;50.882;5.350;2023-03-11T16:09:05;12.90;87.40
18753;DHT22;9505;50.882;5.350;2023-03-11T16:11:31;12.70;87.60
18753;DHT22;9505;50.882;5.350;2023-03-11T16:13:57;12.80;90.20
18753;DHT22;9505;50.882;5.350;2023-03-11T16:16:23;12.70;87.80
18753;DHT22;9505;50.882;5.350;2023-03-11T16:18:49;12.50;90.00
18753;DHT22;9505;50.882;5.350;2023-03-11T16:21:16;11.90;90.00
18753;DHT22;9505;50.882;5.350;2023-03-11T16:23:43;11.40;89.10
18753;DHT22;9505;50.882;5.350;2023-03-11T16:26:10;11.30;91.20
18753;DHT22;9505;50.882;5.350;2023-03-11T16:28:36;11.30;91.30
18753;DHT22;9505;50.882;5.350;2023-03-11T16:31:02;11.00;93.10
18753;DHT22;9505;50.882;5.350;2023-03-11T16:33:28;10.70;93.80
18753;DHT22;9505;50.882;5.350;2023-03-11T16:35:54;10.20;93.40
18753;DHT22;9505;50.882;5.350;2023-03-11T16:38:19;9.80;94.00
18753;DHT22;9505;50.882;5.350;2023-03-11T16:40:58;9.40;93.80
18753;DHT22;9505;50.882;5.350;2023-03-11T16:43:25;9.00;95.90
18753;DHT22;9505;50.882;5.350;2023-03-11T16:45:51;8.50;97.40
18753;DHT22;9505;50.882;5.350;2023-03-11T16:48:19;8.20;97.10
18753;DHT22;9505;50.882;5.350;2023-03-11T16:50:45;7.80;98.20
18753;DHT22;9505;50.882;5.350;2023-03-11T16:53:11;7.60;98.30
18753;DHT22;9505;50.882;5.350;2023-03-11T16:55:38;7.30;99.90
18753;DHT22;9505;50.882;5.350;2023-03-11T16:58:03;7.10;99.90
18753;DHT22;9505;50.882;5.350;2023-03-11T17:00:29;6.80;99.90
18753;DHT22;9505;50.882;5.350;2023-03-11T17:02:55;6.70;99.90
18753;DHT22;9505;50.882;5.350;2023-03-11T17:05:21;6.50;99.90
18753;DHT22;9505;50.882;5.350;2023-03-11T17:07:46;6.40;99.90
18753;DHT22;9505;50.882;5.350;2023-03-11T17:10:12;6.30;99.90
18753;DHT22;9505;50.882;5.350;2023-03-11T17:12:38;6.10;99.90
18753;DHT22;9505;50.882;5.350;2023-03-11T17:15:05;6.00;99.90
18753;DHT22;9505;50.882;5.350;2023-03-11T17:17:31;5.80;99.90
18753;DHT22;9505;50.882;5.350;2023-03-11T17:19:56;5.60;99.90
18753;DHT22;9505;50.882;5.350;2023-03-11T17:22:22;5.50;99.90
18753;DHT22;9505;50.882;5.350;2023-03-11T17:24:47;5.40;99.90
18753;DHT22;9505;50.882;5.350;2023-03-11T17:27:13;5.30;99.90
18753;DHT22;9505;50.882;5.350;2023-03-11T17:29:39;5.20;99.90
18753;DHT22;9505;50.882;5.350;2023-03-11T17:32:05;5.10;99.90
18753;DHT22;9505;50.882;5.350;2023-03-11T17:34:31;5.10;99.90
18753;DHT22;9505;50.882;5.350;2023-03-11T17:36:57;5.00;99.90
18753;DHT22;9505;50.882;5.350;2023-03-11T17:39:23;5.00;99.90
18753;DHT22;9505;50.882;5.350;2023-03-11T17:41:48;5.00;99.90
18753;DHT22;9505;50.882;5.350;2023-03-11T17:44:14;4.90;99.90
18753;DHT22;9505;50.882;5.350;2023-03-11T17:46:40;4.80;99.90
18753;DHT22;9505;50.882;5.350;2023-03-11T17:49:06;4.80;99.90
18753;DHT22;9505;50.882;5.350;2023-03-11T17:51:36;4.80;99.90
18753;DHT22;9505;50.882;5.350;2023-03-11T17:54:02;4.80;99.90